createdAt,value
2017-08-06T00:00:37.377Z,0
2017-08-06T00:01:37.374Z,0
2017-08-06T00:02:37.373Z,0
2017-08-06T00:03:37.374Z,0
2017-08-06T00:04:37.369Z,0
2017-08-06T00:05:37.365Z,0
2017-08-06T00:06:37.365Z,0
2017-08-06T00:07:37.365Z,0
2017-08-06T00:08:37.064Z,0
2017-08-06T00:09:37.266Z,0
2017-08-06T00:10:37.467Z,0
2017-08-06T00:11:37.472Z,0
2017-08-06T00:12:37.465Z,0
2017-08-06T00:13:37.365Z,0
2017-08-06T00:14:37.464Z,0
2017-08-06T00:15:37.151Z,0
2017-08-06T00:16:37.358Z,0
2017-08-06T00:17:37.357Z,0
2017-08-06T00:18:37.369Z,0
2017-08-06T00:19:37.358Z,0
2017-08-06T00:20:37.374Z,0
2017-08-06T00:21:37.553Z,0
2017-08-06T00:22:37.452Z,0
2017-08-06T00:23:37.348Z,0
2017-08-06T00:24:37.048Z,0
2017-08-06T00:25:37.353Z,0
2017-08-06T00:26:37.503Z,0
2017-08-06T00:27:37.601Z,0
2017-08-06T00:28:37.353Z,0
2017-08-06T00:29:37.351Z,0
2017-08-06T00:30:37.348Z,0
2017-08-06T00:31:37.343Z,0
2017-08-06T00:32:37.346Z,0
2017-08-06T00:33:37.343Z,0
2017-08-06T00:34:37.340Z,0
2017-08-06T00:35:37.342Z,0
2017-08-06T00:36:37.339Z,0
2017-08-06T00:37:37.043Z,0
2017-08-06T00:38:37.337Z,0
2017-08-06T00:39:37.334Z,0
2017-08-06T00:40:37.027Z,0
2017-08-06T00:41:37.342Z,0
2017-08-06T00:42:37.348Z,0
2017-08-06T00:43:37.477Z,0
2017-08-06T00:44:37.023Z,0
2017-08-06T00:45:37.338Z,0
2017-08-06T00:46:37.479Z,0
2017-08-06T00:47:36.715Z,0
2017-08-06T00:48:37.327Z,0
2017-08-06T00:49:37.023Z,0
2017-08-06T00:50:37.425Z,0
2017-08-06T00:51:37.328Z,0
2017-08-06T00:52:37.318Z,0
2017-08-06T00:53:37.445Z,0
2017-08-06T00:54:37.327Z,0
2017-08-06T00:55:37.320Z,0
2017-08-06T00:56:37.481Z,0
2017-08-06T00:57:37.419Z,0
2017-08-06T00:58:37.673Z,0
2017-08-06T00:59:37.316Z,0
2017-08-06T01:00:37.008Z,0
2017-08-06T01:01:37.515Z,0
2017-08-06T01:02:37.317Z,0
2017-08-06T01:03:37.003Z,0
2017-08-06T01:04:37.315Z,0
2017-08-06T01:05:37.312Z,0
2017-08-06T01:06:37.317Z,0
2017-08-06T01:07:37.609Z,0
2017-08-06T01:08:37.309Z,0
2017-08-06T01:09:37.302Z,0
2017-08-06T01:10:37.309Z,0
2017-08-06T01:11:37.507Z,0
2017-08-06T01:12:37.302Z,0
2017-08-06T01:13:36.995Z,0
2017-08-06T01:14:37.295Z,0
2017-08-06T01:15:37.504Z,0
2017-08-06T01:16:37.402Z,0
2017-08-06T01:17:36.995Z,0
2017-08-06T01:18:37.298Z,0
2017-08-06T01:19:37.299Z,0
2017-08-06T01:20:37.399Z,0
2017-08-06T01:21:36.988Z,0
2017-08-06T01:22:37.110Z,0
2017-08-06T01:23:36.989Z,0
2017-08-06T01:24:37.297Z,0
2017-08-06T01:25:37.388Z,0
2017-08-06T01:26:37.442Z,0
2017-08-06T01:27:37.289Z,0
2017-08-06T01:28:37.292Z,0
2017-08-06T01:29:37.293Z,0
2017-08-06T01:30:37.385Z,0
2017-08-06T01:31:37.282Z,0
2017-08-06T01:32:37.283Z,0
2017-08-06T01:33:37.277Z,0
2017-08-06T01:34:37.278Z,0
2017-08-06T01:35:37.381Z,0
2017-08-06T01:36:37.282Z,0
2017-08-06T01:37:37.275Z,0
2017-08-06T01:38:37.281Z,0
2017-08-06T01:39:37.288Z,0
2017-08-06T01:40:37.300Z,0
2017-08-06T01:41:36.979Z,0
2017-08-06T01:42:37.280Z,0
2017-08-06T01:43:37.271Z,0
2017-08-06T01:44:37.272Z,0
2017-08-06T01:45:37.268Z,0
2017-08-06T01:46:37.466Z,0
2017-08-06T01:47:36.958Z,0
2017-08-06T01:48:36.974Z,0
2017-08-06T01:49:37.256Z,0
2017-08-06T01:50:37.267Z,0
2017-08-06T01:51:37.359Z,0
2017-08-06T01:52:37.460Z,0
2017-08-06T01:53:37.410Z,0
2017-08-06T01:54:37.259Z,0
2017-08-06T01:55:37.257Z,0
2017-08-06T01:56:37.250Z,0
2017-08-06T01:57:37.253Z,0
2017-08-06T01:58:37.350Z,0
2017-08-06T01:59:37.357Z,0
2017-08-06T02:00:37.254Z,0
2017-08-06T02:01:37.251Z,0
2017-08-06T02:02:37.040Z,0
2017-08-06T02:03:37.139Z,0
2017-08-06T02:04:37.040Z,0
2017-08-06T02:05:36.940Z,0
2017-08-06T02:06:37.238Z,0
2017-08-06T02:07:37.245Z,0
2017-08-06T02:08:37.281Z,0
2017-08-06T02:09:37.440Z,0
2017-08-06T02:10:37.233Z,0
2017-08-06T02:11:36.624Z,0
2017-08-06T02:12:37.247Z,0
2017-08-06T02:13:37.337Z,0
2017-08-06T02:14:37.385Z,0
2017-08-06T02:15:37.230Z,0
2017-08-06T02:16:37.235Z,0
2017-08-06T02:17:37.225Z,0
2017-08-06T02:18:37.380Z,0
2017-08-06T02:19:37.324Z,0
2017-08-06T02:20:37.231Z,0
2017-08-06T02:21:37.222Z,0
2017-08-06T02:22:37.224Z,0
2017-08-06T02:23:36.924Z,0
2017-08-06T02:24:37.215Z,0
2017-08-06T02:25:36.710Z,0
2017-08-06T02:26:36.914Z,0
2017-08-06T02:27:37.319Z,0
2017-08-06T02:28:37.221Z,0
2017-08-06T02:29:36.606Z,0
2017-08-06T02:30:37.315Z,0
2017-08-06T02:31:37.207Z,0
2017-08-06T02:32:37.212Z,0
2017-08-06T02:33:37.315Z,0
2017-08-06T02:34:37.304Z,0
2017-08-06T02:35:36.913Z,0
2017-08-06T02:36:37.355Z,0
2017-08-06T02:37:37.214Z,0
2017-08-06T02:38:37.302Z,0
2017-08-06T02:39:37.299Z,0
2017-08-06T02:40:37.202Z,0
2017-08-06T02:41:36.988Z,0
2017-08-06T02:42:37.203Z,0
2017-08-06T02:43:37.301Z,0
2017-08-06T02:44:37.203Z,0
2017-08-06T02:45:37.297Z,0
2017-08-06T02:46:37.294Z,0
2017-08-06T02:47:37.199Z,0
2017-08-06T02:48:36.880Z,0
2017-08-06T02:49:37.194Z,0
2017-08-06T02:50:37.306Z,0
2017-08-06T02:51:37.183Z,0
2017-08-06T02:52:37.187Z,0
2017-08-06T02:53:37.285Z,0
2017-08-06T02:54:37.203Z,0
2017-08-06T02:55:37.385Z,0
2017-08-06T02:56:37.177Z,0
2017-08-06T02:57:37.186Z,0
2017-08-06T02:58:37.176Z,0
2017-08-06T02:59:37.168Z,0
2017-08-06T03:00:37.170Z,0
2017-08-06T03:01:37.372Z,0
2017-08-06T03:02:36.867Z,0
2017-08-06T03:03:37.171Z,0
2017-08-06T03:04:36.867Z,0
2017-08-06T03:05:36.857Z,0
2017-08-06T03:06:36.861Z,0
2017-08-06T03:07:37.266Z,0
2017-08-06T03:08:37.257Z,0
2017-08-06T03:09:37.163Z,0
2017-08-06T03:10:37.163Z,0
2017-08-06T03:11:37.051Z,0
2017-08-06T03:12:37.302Z,0
2017-08-06T03:13:37.158Z,0
2017-08-06T03:14:37.153Z,0
2017-08-06T03:15:37.155Z,0
2017-08-06T03:16:37.152Z,0
2017-08-06T03:17:37.142Z,0
2017-08-06T03:18:37.151Z,0
2017-08-06T03:19:37.249Z,0
2017-08-06T03:20:37.144Z,0
2017-08-06T03:21:36.936Z,0
2017-08-06T03:22:37.292Z,0
2017-08-06T03:23:37.145Z,0
2017-08-06T03:24:37.143Z,0
2017-08-06T03:25:36.534Z,0
2017-08-06T03:26:36.833Z,0
2017-08-06T03:27:36.834Z,0
2017-08-06T03:28:36.839Z,0
2017-08-06T03:29:37.132Z,0
2017-08-06T03:30:37.136Z,0
2017-08-06T03:31:36.819Z,0
2017-08-06T03:32:37.279Z,0
2017-08-06T03:33:37.122Z,0
2017-08-06T03:34:37.124Z,0
2017-08-06T03:35:37.119Z,0
2017-08-06T03:36:37.135Z,0
2017-08-06T03:37:37.274Z,0
2017-08-06T03:38:37.131Z,0
2017-08-06T03:39:37.110Z,0
2017-08-06T03:40:36.810Z,0
2017-08-06T03:41:36.805Z,0
2017-08-06T03:42:37.108Z,0
2017-08-06T03:43:36.806Z,0
2017-08-06T03:44:36.898Z,0
2017-08-06T03:45:37.000Z,0
2017-08-06T03:46:37.126Z,0
2017-08-06T03:47:37.253Z,0
2017-08-06T03:48:36.793Z,4
2017-08-06T03:49:37.117Z,0
2017-08-06T03:50:36.784Z,4
2017-08-06T03:51:36.793Z,4
2017-08-06T03:52:37.194Z,8
2017-08-06T03:53:36.889Z,4
2017-08-06T03:54:37.240Z,8
2017-08-06T03:55:36.878Z,8
2017-08-06T03:56:36.788Z,8
2017-08-06T03:57:36.779Z,12
2017-08-06T03:58:37.083Z,12
2017-08-06T03:59:37.082Z,16
2017-08-06T04:00:37.179Z,16
2017-08-06T04:01:36.770Z,20
2017-08-06T04:02:37.176Z,24
2017-08-06T04:03:37.071Z,24
2017-08-06T04:04:37.174Z,28
2017-08-06T04:05:37.167Z,32
2017-08-06T04:06:36.765Z,36
2017-08-06T04:07:36.760Z,40
2017-08-06T04:08:37.067Z,40
2017-08-06T04:09:37.176Z,44
2017-08-06T04:10:37.076Z,48
2017-08-06T04:11:37.061Z,52
2017-08-06T04:12:37.165Z,56
2017-08-06T04:13:36.758Z,56
2017-08-06T04:14:37.204Z,56
2017-08-06T04:15:36.899Z,56
2017-08-06T04:16:37.049Z,52
2017-08-06T04:17:36.842Z,52
2017-08-06T04:18:37.048Z,52
2017-08-06T04:19:37.196Z,52
2017-08-06T04:20:37.144Z,48
2017-08-06T04:21:37.144Z,52
2017-08-06T04:22:37.045Z,56
2017-08-06T04:23:37.030Z,56
2017-08-06T04:24:37.131Z,56
2017-08-06T04:25:36.731Z,60
2017-08-06T04:26:37.136Z,68
2017-08-06T04:27:37.028Z,76
2017-08-06T04:28:36.723Z,80
2017-08-06T04:29:37.181Z,92
2017-08-06T04:30:37.132Z,108
2017-08-06T04:31:36.723Z,120
2017-08-06T04:32:36.862Z,124
2017-08-06T04:33:37.022Z,128
2017-08-06T04:34:36.511Z,140
2017-08-06T04:35:36.718Z,160
2017-08-06T04:36:36.808Z,168
2017-08-06T04:37:37.014Z,172
2017-08-06T04:38:36.713Z,164
2017-08-06T04:39:36.811Z,164
2017-08-06T04:40:36.697Z,172
2017-08-06T04:41:37.010Z,196
2017-08-06T04:42:36.508Z,212
2017-08-06T04:43:37.005Z,236
2017-08-06T04:44:37.015Z,264
2017-08-06T04:45:37.006Z,276
2017-08-06T04:46:37.157Z,248
2017-08-06T04:47:36.998Z,240
2017-08-06T04:48:36.718Z,228
2017-08-06T04:49:37.099Z,208
2017-08-06T04:50:36.985Z,192
2017-08-06T04:51:37.004Z,172
2017-08-06T04:52:36.682Z,156
2017-08-06T04:53:36.982Z,156
2017-08-06T04:54:37.137Z,160
2017-08-06T04:55:37.081Z,160
2017-08-06T04:56:36.681Z,164
2017-08-06T04:57:36.972Z,172
2017-08-06T04:58:36.976Z,200
2017-08-06T04:59:36.973Z,240
2017-08-06T05:00:36.815Z,276
2017-08-06T05:01:36.976Z,332
2017-08-06T05:02:37.118Z,376
2017-08-06T05:03:36.757Z,396
2017-08-06T05:04:36.055Z,384
2017-08-06T05:05:36.972Z,420
2017-08-06T05:06:36.971Z,456
2017-08-06T05:07:36.959Z,492
2017-08-06T05:08:36.961Z,444
2017-08-06T05:09:36.962Z,400
2017-08-06T05:10:36.953Z,344
2017-08-06T05:11:36.745Z,316
2017-08-06T05:12:37.205Z,304
2017-08-06T05:13:36.949Z,292
2017-08-06T05:14:37.216Z,288
2017-08-06T05:15:36.643Z,304
2017-08-06T05:16:36.634Z,316
2017-08-06T05:17:36.955Z,324
2017-08-06T05:18:36.634Z,348
2017-08-06T05:19:36.785Z,424
2017-08-06T05:20:36.629Z,512
2017-08-06T05:21:36.935Z,608
2017-08-06T05:22:36.937Z,676
2017-08-06T05:23:36.933Z,684
2017-08-06T05:24:37.087Z,696
2017-08-06T05:25:36.935Z,712
2017-08-06T05:26:37.031Z,656
2017-08-06T05:27:36.635Z,552
2017-08-06T05:28:36.925Z,476
2017-08-06T05:29:37.020Z,436
2017-08-06T05:30:36.916Z,420
2017-08-06T05:31:36.935Z,448
2017-08-06T05:32:36.918Z,496
2017-08-06T05:33:36.920Z,544
2017-08-06T05:34:36.915Z,624
2017-08-06T05:35:37.218Z,728
2017-08-06T05:36:36.935Z,888
2017-08-06T05:37:37.008Z,1168
2017-08-06T05:38:36.918Z,1496
2017-08-06T05:39:37.018Z,1692
2017-08-06T05:40:36.906Z,1756
2017-08-06T05:41:36.596Z,1692
2017-08-06T05:42:36.901Z,1676
2017-08-06T05:43:37.000Z,1608
2017-08-06T05:44:37.002Z,1568
2017-08-06T05:45:36.900Z,1432
2017-08-06T05:46:36.684Z,1152
2017-08-06T05:47:36.890Z,968
2017-08-06T05:48:36.895Z,860
2017-08-06T05:49:36.894Z,800
2017-08-06T05:50:36.887Z,700
2017-08-06T05:51:36.892Z,648
2017-08-06T05:52:36.888Z,644
2017-08-06T05:53:36.993Z,640
2017-08-06T05:54:37.035Z,656
2017-08-06T05:55:36.576Z,640
2017-08-06T05:56:36.884Z,632
2017-08-06T05:57:36.268Z,584
2017-08-06T05:58:36.983Z,576
2017-08-06T05:59:36.872Z,660
2017-08-06T06:00:37.077Z,648
2017-08-06T06:01:36.569Z,636
2017-08-06T06:02:36.870Z,720
2017-08-06T06:03:36.567Z,848
2017-08-06T06:04:36.870Z,932
2017-08-06T06:05:36.870Z,1020
2017-08-06T06:06:36.665Z,960
2017-08-06T06:07:36.364Z,760
2017-08-06T06:08:36.963Z,652
2017-08-06T06:09:36.860Z,740
2017-08-06T06:10:36.860Z,904
2017-08-06T06:11:36.703Z,968
2017-08-06T06:12:36.866Z,1176
2017-08-06T06:13:36.852Z,1428
2017-08-06T06:14:36.853Z,1840
2017-08-06T06:15:36.845Z,2076
2017-08-06T06:16:37.059Z,2120
2017-08-06T06:17:36.850Z,2020
2017-08-06T06:18:36.844Z,1652
2017-08-06T06:19:36.537Z,1472
2017-08-06T06:20:36.948Z,1820
2017-08-06T06:21:36.844Z,2112
2017-08-06T06:22:36.843Z,2000
2017-08-06T06:23:36.837Z,2264
2017-08-06T06:24:36.842Z,2784
2017-08-06T06:25:36.941Z,3364
2017-08-06T06:26:36.625Z,4236
2017-08-06T06:27:36.937Z,3048
2017-08-06T06:28:36.836Z,2960
2017-08-06T06:29:36.831Z,2764
2017-08-06T06:30:36.623Z,2404
2017-08-06T06:31:36.975Z,2192
2017-08-06T06:32:36.831Z,1684
2017-08-06T06:33:36.522Z,2040
2017-08-06T06:34:36.823Z,1536
2017-08-06T06:35:36.668Z,1100
2017-08-06T06:36:36.813Z,860
2017-08-06T06:37:36.823Z,908
2017-08-06T06:38:36.910Z,932
2017-08-06T06:39:36.823Z,884
2017-08-06T06:40:36.917Z,888
2017-08-06T06:41:36.914Z,964
2017-08-06T06:42:36.811Z,1060
2017-08-06T06:43:36.810Z,1080
2017-08-06T06:44:36.810Z,1068
2017-08-06T06:45:36.696Z,1084
2017-08-06T06:46:36.804Z,1028
2017-08-06T06:47:36.824Z,976
2017-08-06T06:48:36.919Z,1056
2017-08-06T06:49:36.806Z,1248
2017-08-06T06:50:36.800Z,1452
2017-08-06T06:51:36.805Z,1584
2017-08-06T06:52:36.795Z,1712
2017-08-06T06:53:36.890Z,1768
2017-08-06T06:54:36.790Z,1828
2017-08-06T06:55:37.040Z,1824
2017-08-06T06:56:36.486Z,1716
2017-08-06T06:57:36.785Z,1616
2017-08-06T06:58:36.478Z,1496
2017-08-06T06:59:36.483Z,1256
2017-08-06T07:00:36.789Z,996
2017-08-06T07:01:36.784Z,780
2017-08-06T07:02:36.778Z,724
2017-08-06T07:03:36.778Z,780
2017-08-06T07:04:36.787Z,792
2017-08-06T07:05:36.778Z,852
2017-08-06T07:06:36.874Z,952
2017-08-06T07:07:36.875Z,960
2017-08-06T07:08:36.778Z,920
2017-08-06T07:09:36.775Z,872
2017-08-06T07:10:36.771Z,828
2017-08-06T07:11:36.770Z,796
2017-08-06T07:12:36.766Z,744
2017-08-06T07:13:37.019Z,684
2017-08-06T07:14:36.768Z,704
2017-08-06T07:15:36.767Z,740
2017-08-06T07:16:36.759Z,716
2017-08-06T07:17:36.863Z,668
2017-08-06T07:18:36.865Z,632
2017-08-06T07:19:36.446Z,600
2017-08-06T07:20:36.752Z,564
2017-08-06T07:21:36.447Z,532
2017-08-06T07:22:36.855Z,508
2017-08-06T07:23:37.147Z,552
2017-08-06T07:24:36.845Z,676
2017-08-06T07:25:36.744Z,720
2017-08-06T07:26:36.742Z,744
2017-08-06T07:27:36.744Z,772
2017-08-06T07:28:36.939Z,836
2017-08-06T07:29:36.433Z,900
2017-08-06T07:30:36.838Z,952
2017-08-06T07:31:36.739Z,1016
2017-08-06T07:32:36.120Z,1180
2017-08-06T07:33:36.737Z,1436
2017-08-06T07:34:36.731Z,1736
2017-08-06T07:35:36.736Z,1936
2017-08-06T07:36:36.731Z,2112
2017-08-06T07:37:36.722Z,2408
2017-08-06T07:38:36.874Z,2908
2017-08-06T07:39:36.112Z,3492
2017-08-06T07:40:36.820Z,4008
2017-08-06T07:41:36.966Z,4500
2017-08-06T07:42:36.819Z,4824
2017-08-06T07:43:36.408Z,5276
2017-08-06T07:44:36.559Z,5680
2017-08-06T07:45:36.410Z,5468
2017-08-06T07:46:36.710Z,4784
2017-08-06T07:47:36.897Z,4060
2017-08-06T07:48:36.715Z,3600
2017-08-06T07:49:36.861Z,3472
2017-08-06T07:50:36.400Z,3332
2017-08-06T07:51:36.857Z,3340
2017-08-06T07:52:36.190Z,3240
2017-08-06T07:53:36.802Z,3068
2017-08-06T07:54:36.085Z,2916
2017-08-06T07:55:36.398Z,2524
2017-08-06T07:56:36.800Z,2244
2017-08-06T07:57:36.750Z,2308
2017-08-06T07:58:36.797Z,2572
2017-08-06T07:59:36.798Z,2880
2017-08-06T08:00:36.846Z,3160
2017-08-06T08:01:36.693Z,3776
2017-08-06T08:02:36.792Z,5176
2017-08-06T08:03:36.695Z,4960
2017-08-06T08:04:36.681Z,5608
2017-08-06T08:05:36.686Z,5560
2017-08-06T08:06:36.786Z,5640
2017-08-06T08:07:36.378Z,5860
2017-08-06T08:08:36.687Z,5832
2017-08-06T08:09:36.679Z,6012
2017-08-06T08:10:36.687Z,6000
2017-08-06T08:11:36.677Z,6020
2017-08-06T08:12:36.683Z,6044
2017-08-06T08:13:36.682Z,6652
2017-08-06T08:14:36.676Z,6696
2017-08-06T08:15:36.671Z,6840
2017-08-06T08:16:36.871Z,6552
2017-08-06T08:17:36.673Z,6080
2017-08-06T08:18:36.669Z,5696
2017-08-06T08:19:36.772Z,5524
2017-08-06T08:20:36.824Z,5816
2017-08-06T08:21:36.673Z,5660
2017-08-06T08:22:36.360Z,6020
2017-08-06T08:23:36.668Z,6236
2017-08-06T08:24:36.763Z,6164
2017-08-06T08:25:36.766Z,6168
2017-08-06T08:26:36.776Z,5952
2017-08-06T08:27:36.771Z,5544
2017-08-06T08:28:36.668Z,5220
2017-08-06T08:29:36.360Z,5116
2017-08-06T08:30:36.818Z,5016
2017-08-06T08:31:36.661Z,4844
2017-08-06T08:32:36.760Z,4920
2017-08-06T08:33:36.922Z,5248
2017-08-06T08:34:36.660Z,5172
2017-08-06T08:35:36.653Z,4632
2017-08-06T08:36:36.659Z,4360
2017-08-06T08:37:36.658Z,4364
2017-08-06T08:38:36.657Z,4764
2017-08-06T08:39:36.756Z,5056
2017-08-06T08:40:36.453Z,5352
2017-08-06T08:41:36.653Z,5784
2017-08-06T08:42:36.650Z,6072
2017-08-06T08:43:36.653Z,6280
2017-08-06T08:44:36.806Z,6396
2017-08-06T08:45:36.747Z,5544
2017-08-06T08:46:36.766Z,4724
2017-08-06T08:47:36.651Z,3840
2017-08-06T08:48:36.650Z,3384
2017-08-06T08:49:36.341Z,3220
2017-08-06T08:50:36.640Z,3384
2017-08-06T08:51:37.045Z,3508
2017-08-06T08:52:36.641Z,3432
2017-08-06T08:53:36.646Z,3360
2017-08-06T08:54:36.334Z,3592
2017-08-06T08:55:36.647Z,3652
2017-08-06T08:56:36.650Z,3692
2017-08-06T08:57:36.652Z,3620
2017-08-06T08:58:36.641Z,3436
2017-08-06T08:59:36.637Z,3164
2017-08-06T09:00:36.742Z,3180
2017-08-06T09:01:36.738Z,3396
2017-08-06T09:02:36.639Z,3940
2017-08-06T09:03:36.736Z,4504
2017-08-06T09:04:36.638Z,4680
2017-08-06T09:05:36.635Z,4588
2017-08-06T09:06:36.736Z,4328
2017-08-06T09:07:36.329Z,4084
2017-08-06T09:08:36.738Z,3948
2017-08-06T09:09:36.636Z,3996
2017-08-06T09:10:36.641Z,4060
2017-08-06T09:11:36.024Z,3776
2017-08-06T09:12:36.420Z,3320
2017-08-06T09:13:36.430Z,3284
2017-08-06T09:14:36.727Z,3392
2017-08-06T09:15:36.633Z,3328
2017-08-06T09:16:36.353Z,3128
2017-08-06T09:17:36.622Z,3032
2017-08-06T09:18:36.725Z,3084
2017-08-06T09:19:36.628Z,3180
2017-08-06T09:20:36.623Z,3256
2017-08-06T09:21:36.623Z,3412
2017-08-06T09:22:36.616Z,3464
2017-08-06T09:23:36.772Z,3564
2017-08-06T09:24:36.310Z,3368
2017-08-06T09:25:36.627Z,3000
2017-08-06T09:26:36.410Z,2548
2017-08-06T09:27:36.618Z,2116
2017-08-06T09:28:36.570Z,1820
2017-08-06T09:29:36.614Z,1636
2017-08-06T09:30:35.999Z,1476
2017-08-06T09:31:36.304Z,1340
2017-08-06T09:32:36.648Z,1252
2017-08-06T09:33:36.809Z,1240
2017-08-06T09:34:36.715Z,1204
2017-08-06T09:35:36.301Z,1168
2017-08-06T09:36:36.617Z,1124
2017-08-06T09:37:36.607Z,1104
2017-08-06T09:38:36.601Z,1100
2017-08-06T09:39:36.750Z,1128
2017-08-06T09:40:36.759Z,1228
2017-08-06T09:41:36.291Z,1416
2017-08-06T09:42:36.595Z,1596
2017-08-06T09:43:36.594Z,1684
2017-08-06T09:44:36.596Z,1712
2017-08-06T09:45:36.600Z,1776
2017-08-06T09:46:36.286Z,1780
2017-08-06T09:47:36.593Z,1764
2017-08-06T09:48:36.434Z,1776
2017-08-06T09:49:36.587Z,1804
2017-08-06T09:50:36.593Z,1848
2017-08-06T09:51:36.580Z,1872
2017-08-06T09:52:36.584Z,1856
2017-08-06T09:53:36.582Z,1876
2017-08-06T09:54:36.588Z,1968
2017-08-06T09:55:36.274Z,2164
2017-08-06T09:56:36.576Z,2404
2017-08-06T09:57:36.575Z,2588
2017-08-06T09:58:36.676Z,2732
2017-08-06T09:59:36.577Z,2836
2017-08-06T10:00:36.571Z,2752
2017-08-06T10:01:36.571Z,2720
2017-08-06T10:02:36.567Z,2596
2017-08-06T10:03:36.574Z,2448
2017-08-06T10:04:36.720Z,2492
2017-08-06T10:05:36.572Z,2556
2017-08-06T10:06:36.573Z,2636
2017-08-06T10:07:36.568Z,2668
2017-08-06T10:08:36.257Z,2652
2017-08-06T10:09:36.561Z,2688
2017-08-06T10:10:36.806Z,2788
2017-08-06T10:11:36.569Z,3004
2017-08-06T10:12:36.653Z,3284
2017-08-06T10:13:36.262Z,3520
2017-08-06T10:14:36.246Z,3568
2017-08-06T10:15:36.556Z,3552
2017-08-06T10:16:36.556Z,3452
2017-08-06T10:17:36.549Z,3312
2017-08-06T10:18:36.648Z,3204
2017-08-06T10:19:36.243Z,3132
2017-08-06T10:20:36.238Z,3160
2017-08-06T10:21:36.237Z,3368
2017-08-06T10:22:36.642Z,3756
2017-08-06T10:23:36.388Z,4156
2017-08-06T10:24:36.546Z,4248
2017-08-06T10:25:36.545Z,4308
2017-08-06T10:26:36.235Z,4532
2017-08-06T10:27:36.537Z,4984
2017-08-06T10:28:36.646Z,5412
2017-08-06T10:29:36.537Z,5604
2017-08-06T10:30:36.540Z,5716
2017-08-06T10:31:36.529Z,5712
2017-08-06T10:32:36.532Z,5736
2017-08-06T10:33:36.526Z,5836
2017-08-06T10:34:36.528Z,5724
2017-08-06T10:35:36.533Z,5440
2017-08-06T10:36:36.528Z,5104
2017-08-06T10:37:36.529Z,4728
2017-08-06T10:38:36.220Z,4324
2017-08-06T10:39:36.631Z,4380
2017-08-06T10:40:36.624Z,4616
2017-08-06T10:41:36.222Z,4732
2017-08-06T10:42:36.527Z,4852
2017-08-06T10:43:36.524Z,4776
2017-08-06T10:44:36.518Z,4904
2017-08-06T10:45:36.514Z,4756
2017-08-06T10:46:36.362Z,4380
2017-08-06T10:47:36.312Z,4564
2017-08-06T10:48:36.524Z,4764
2017-08-06T10:49:36.507Z,5056
2017-08-06T10:50:36.662Z,5324
2017-08-06T10:51:36.297Z,5136
2017-08-06T10:52:36.610Z,5184
2017-08-06T10:53:36.201Z,5432
2017-08-06T10:54:36.508Z,5048
2017-08-06T10:55:36.210Z,5080
2017-08-06T10:56:36.606Z,5356
2017-08-06T10:57:36.660Z,4864
2017-08-06T10:58:35.589Z,5000
2017-08-06T10:59:36.504Z,5068
2017-08-06T11:00:36.508Z,4832
2017-08-06T11:01:36.190Z,5584
2017-08-06T11:02:36.502Z,5252
2017-08-06T11:03:36.601Z,5228
2017-08-06T11:04:36.511Z,5012
2017-08-06T11:05:36.597Z,4496
2017-08-06T11:06:36.295Z,4204
2017-08-06T11:07:36.691Z,4196
2017-08-06T11:08:36.495Z,4316
2017-08-06T11:09:36.507Z,4460
2017-08-06T11:10:36.299Z,4800
2017-08-06T11:11:36.285Z,4964
2017-08-06T11:12:36.183Z,4916
2017-08-06T11:13:36.192Z,5012
2017-08-06T11:14:36.488Z,4976
2017-08-06T11:15:36.640Z,5244
2017-08-06T11:16:36.490Z,5336
2017-08-06T11:17:36.334Z,5424
2017-08-06T11:18:36.277Z,5432
2017-08-06T11:19:36.494Z,5624
2017-08-06T11:20:36.587Z,5640
2017-08-06T11:21:36.180Z,5716
2017-08-06T11:22:36.489Z,5768
2017-08-06T11:23:36.577Z,5724
2017-08-06T11:24:35.866Z,5760
2017-08-06T11:25:36.174Z,5940
2017-08-06T11:26:36.580Z,5840
2017-08-06T11:27:36.586Z,5824
2017-08-06T11:28:36.654Z,5816
2017-08-06T11:29:35.867Z,5812
2017-08-06T11:30:36.172Z,5832
2017-08-06T11:31:36.474Z,5872
2017-08-06T11:32:36.269Z,5872
2017-08-06T11:33:36.485Z,5716
2017-08-06T11:34:36.624Z,5552
2017-08-06T11:35:36.272Z,5396
2017-08-06T11:36:36.470Z,5380
2017-08-06T11:37:36.619Z,5412
2017-08-06T11:38:36.630Z,5484
2017-08-06T11:39:36.267Z,5260
2017-08-06T11:40:36.472Z,5048
2017-08-06T11:41:36.165Z,4996
2017-08-06T11:42:36.467Z,5052
2017-08-06T11:43:36.162Z,5208
2017-08-06T11:44:36.159Z,5444
2017-08-06T11:45:36.485Z,5668
2017-08-06T11:46:36.480Z,5700
2017-08-06T11:47:36.560Z,5708
2017-08-06T11:48:36.460Z,5516
2017-08-06T11:49:36.463Z,5372
2017-08-06T11:50:36.457Z,5464
2017-08-06T11:51:35.950Z,5620
2017-08-06T11:52:36.467Z,5636
2017-08-06T11:53:36.254Z,5664
2017-08-06T11:54:36.157Z,5344
2017-08-06T11:55:36.054Z,4876
2017-08-06T11:56:36.460Z,4612
2017-08-06T11:57:35.839Z,4620
2017-08-06T11:58:36.461Z,4664
2017-08-06T11:59:36.307Z,4600
2017-08-06T12:00:36.150Z,4364
2017-08-06T12:01:36.456Z,4120
2017-08-06T12:02:36.601Z,3900
2017-08-06T12:03:36.568Z,3640
2017-08-06T12:04:36.456Z,3488
2017-08-06T12:05:36.450Z,3272
2017-08-06T12:06:36.451Z,3188
2017-08-06T12:07:36.451Z,3188
2017-08-06T12:08:36.443Z,3276
2017-08-06T12:09:36.452Z,3404
2017-08-06T12:10:35.839Z,3528
2017-08-06T12:11:36.462Z,3716
2017-08-06T12:12:36.450Z,3760
2017-08-06T12:13:36.449Z,3764
2017-08-06T12:14:36.589Z,3760
2017-08-06T12:15:36.452Z,3724
2017-08-06T12:16:36.594Z,3416
2017-08-06T12:17:36.445Z,3472
2017-08-06T12:18:36.437Z,3284
2017-08-06T12:19:35.926Z,3196
2017-08-06T12:20:35.825Z,3164
2017-08-06T12:21:35.823Z,3172
2017-08-06T12:22:36.539Z,3192
2017-08-06T12:23:36.444Z,3424
2017-08-06T12:24:36.129Z,3780
2017-08-06T12:25:36.434Z,4028
2017-08-06T12:26:36.581Z,3980
2017-08-06T12:27:36.428Z,3756
2017-08-06T12:28:36.543Z,3372
2017-08-06T12:29:36.533Z,3140
2017-08-06T12:30:36.437Z,3056
2017-08-06T12:31:36.527Z,3076
2017-08-06T12:32:36.429Z,3148
2017-08-06T12:33:36.545Z,3280
2017-08-06T12:34:35.812Z,3400
2017-08-06T12:35:36.118Z,3288
2017-08-06T12:36:35.814Z,3236
2017-08-06T12:37:36.112Z,3260
2017-08-06T12:38:36.419Z,3300
2017-08-06T12:39:36.517Z,3432
2017-08-06T12:40:36.675Z,3480
2017-08-06T12:41:36.287Z,3420
2017-08-06T12:42:36.420Z,3420
2017-08-06T12:43:36.213Z,3552
2017-08-06T12:44:36.570Z,3820
2017-08-06T12:45:35.899Z,4148
2017-08-06T12:46:35.801Z,4396
2017-08-06T12:47:36.114Z,4484
2017-08-06T12:48:36.510Z,4408
2017-08-06T12:49:36.211Z,4252
2017-08-06T12:50:36.511Z,3936
2017-08-06T12:51:36.201Z,3620
2017-08-06T12:52:35.792Z,3440
2017-08-06T12:53:36.100Z,3272
2017-08-06T12:54:35.789Z,3304
2017-08-06T12:55:35.897Z,3392
2017-08-06T12:56:36.711Z,3516
2017-08-06T12:57:35.794Z,3464
2017-08-06T12:58:36.403Z,3164
2017-08-06T12:59:36.403Z,2884
2017-08-06T13:00:36.402Z,2780
2017-08-06T13:01:36.189Z,3024
2017-08-06T13:02:36.198Z,3428
2017-08-06T13:03:36.085Z,3448
2017-08-06T13:04:36.091Z,2908
2017-08-06T13:05:36.395Z,2588
2017-08-06T13:06:36.506Z,3060
2017-08-06T13:07:36.088Z,2816
2017-08-06T13:08:36.090Z,2884
2017-08-06T13:09:36.190Z,3144
2017-08-06T13:10:36.385Z,3356
2017-08-06T13:11:36.085Z,3676
2017-08-06T13:12:36.538Z,3048
2017-08-06T13:13:36.082Z,3020
2017-08-06T13:14:36.232Z,3012
2017-08-06T13:15:36.076Z,2704
2017-08-06T13:16:36.387Z,2476
2017-08-06T13:17:36.542Z,2192
2017-08-06T13:18:36.485Z,2088
2017-08-06T13:19:36.384Z,2140
2017-08-06T13:20:36.381Z,1992
2017-08-06T13:21:36.072Z,1972
2017-08-06T13:22:36.177Z,2104
2017-08-06T13:23:36.503Z,2224
2017-08-06T13:24:36.071Z,2272
2017-08-06T13:25:36.377Z,2040
2017-08-06T13:26:36.073Z,2040
2017-08-06T13:27:36.529Z,2056
2017-08-06T13:28:36.064Z,2036
2017-08-06T13:29:36.068Z,1992
2017-08-06T13:30:36.066Z,1736
2017-08-06T13:31:36.058Z,1484
2017-08-06T13:32:36.369Z,1548
2017-08-06T13:33:36.370Z,1528
2017-08-06T13:34:36.463Z,1488
2017-08-06T13:35:36.060Z,1592
2017-08-06T13:36:36.358Z,1308
2017-08-06T13:37:36.057Z,1216
2017-08-06T13:38:36.360Z,1412
2017-08-06T13:39:36.361Z,1472
2017-08-06T13:40:36.052Z,1372
2017-08-06T13:41:36.463Z,1200
2017-08-06T13:42:35.753Z,1244
2017-08-06T13:43:36.464Z,1356
2017-08-06T13:44:36.050Z,1444
2017-08-06T13:45:36.148Z,1532
2017-08-06T13:46:36.451Z,1576
2017-08-06T13:47:36.046Z,1816
2017-08-06T13:48:36.345Z,2004